createdAt,value
2022-08-18T00:01:22.494Z,18.67
2022-08-18T00:03:57.123Z,18.67
2022-08-18T00:06:28.602Z,18.66
2022-08-18T00:08:57.393Z,18.66
2022-08-18T00:11:24.963Z,18.66
2022-08-18T00:13:52.762Z,18.65
2022-08-18T00:16:21.677Z,18.68
2022-08-18T00:18:49.189Z,18.68
2022-08-18T00:21:16.956Z,18.68
2022-08-18T00:23:44.522Z,18.70
2022-08-18T00:26:12.163Z,18.71
2022-08-18T00:28:39.699Z,18.72
2022-08-18T00:31:07.362Z,18.73
2022-08-18T00:33:36.302Z,18.73
2022-08-18T00:36:03.934Z,18.75
2022-08-18T00:38:31.476Z,18.76
2022-08-18T00:40:59.015Z,18.76
2022-08-18T00:43:32.938Z,18.78
2022-08-18T00:46:00.703Z,18.80
2022-08-18T00:48:30.015Z,18.80
2022-08-18T00:51:00.578Z,18.81
2022-08-18T00:53:30.413Z,18.82
2022-08-18T00:55:59.829Z,18.83
2022-08-18T00:58:29.999Z,18.84
2022-08-18T01:00:57.747Z,18.83
2022-08-18T01:03:25.549Z,18.83
2022-08-18T01:05:57.137Z,18.83
2022-08-18T01:08:28.842Z,18.85
2022-08-18T01:10:57.478Z,18.85
2022-08-18T01:13:27.726Z,18.86
2022-08-18T01:15:55.297Z,18.86
2022-08-18T01:18:40.570Z,18.86
2022-08-18T01:21:30.392Z,18.87
2022-08-18T01:23:59.617Z,18.88
2022-08-18T01:26:26.944Z,18.87
2022-08-18T01:28:54.922Z,18.87
2022-08-18T01:31:34.939Z,18.86
2022-08-18T01:34:02.501Z,18.84
2022-08-18T01:36:30.127Z,18.82
2022-08-18T01:38:59.108Z,18.80
2022-08-18T01:41:30.349Z,18.78
2022-08-18T01:43:59.128Z,18.75
2022-08-18T01:46:27.649Z,18.74
2022-08-18T01:48:55.220Z,18.72
2022-08-18T01:51:40.279Z,18.68
2022-08-18T01:54:11.159Z,18.65
2022-08-18T01:56:38.765Z,18.61
2022-08-18T01:59:07.116Z,18.56
2022-08-18T02:01:45.293Z,18.52
2022-08-18T02:04:34.497Z,18.48
2022-08-18T02:07:02.541Z,18.43
2022-08-18T02:09:33.525Z,18.40
2022-08-18T02:12:02.277Z,18.36
2022-08-18T02:14:31.300Z,18.34
2022-08-18T02:17:01.393Z,18.31
2022-08-18T02:19:33.297Z,18.29
2022-08-18T02:22:01.147Z,18.28
2022-08-18T02:24:29.024Z,18.28
2022-08-18T02:26:58.105Z,18.25
2022-08-18T02:29:25.654Z,18.25
2022-08-18T02:31:53.849Z,18.25
2022-08-18T02:34:21.643Z,18.25
2022-08-18T02:36:49.185Z,18.28
2022-08-18T02:39:16.729Z,18.28
2022-08-18T02:41:44.360Z,18.29
2022-08-18T02:44:13.386Z,18.30
2022-08-18T02:46:40.895Z,18.33
2022-08-18T02:49:09.068Z,18.36
2022-08-18T02:51:36.914Z,18.38
2022-08-18T02:54:09.178Z,18.41
2022-08-18T02:56:40.960Z,18.43
2022-08-18T02:59:10.901Z,18.43
2022-08-18T03:01:41.872Z,18.46
2022-08-18T03:04:10.587Z,18.47
2022-08-18T03:06:38.713Z,18.46
2022-08-18T03:09:06.864Z,18.44
2022-08-18T03:11:34.431Z,18.43
2022-08-18T03:14:01.968Z,18.41
2022-08-18T03:16:31.408Z,18.40
2022-08-18T03:19:01.100Z,18.40
2022-08-18T03:21:34.868Z,18.39
2022-08-18T03:24:03.075Z,18.38
2022-08-18T03:26:37.315Z,18.39
2022-08-18T03:29:04.893Z,18.39
2022-08-18T03:31:32.508Z,18.38
2022-08-18T03:34:01.525Z,18.40
2022-08-18T03:36:31.868Z,18.40
2022-08-18T03:39:00.347Z,18.41
2022-08-18T03:41:59.232Z,18.41
2022-08-18T03:44:16.502Z,18.40
2022-08-18T03:46:45.189Z,18.39
2022-08-18T03:49:14.426Z,18.39
2022-08-18T03:51:44.043Z,18.39
2022-08-18T03:54:13.303Z,18.41
2022-08-18T03:56:42.058Z,18.42
2022-08-18T03:59:11.153Z,18.42
2022-08-18T04:01:40.429Z,18.44
2022-08-18T04:04:09.550Z,18.46
2022-08-18T04:06:41.162Z,18.47
2022-08-18T04:09:09.628Z,18.48
2022-08-18T04:11:38.093Z,18.48
2022-08-18T04:14:05.823Z,18.47
2022-08-18T04:16:34.833Z,18.48
2022-08-18T04:19:04.343Z,18.49
2022-08-18T04:21:33.143Z,18.49
2022-08-18T04:24:04.070Z,18.48
2022-08-18T04:26:31.996Z,18.47
2022-08-18T04:29:01.036Z,18.48
2022-08-18T04:31:29.629Z,18.47
2022-08-18T04:33:58.328Z,18.46
2022-08-18T04:36:26.019Z,18.47
2022-08-18T04:38:56.388Z,18.48
2022-08-18T04:41:27.833Z,18.49
2022-08-18T04:43:55.823Z,18.49
2022-08-18T04:46:24.233Z,18.49
2022-08-18T04:48:52.675Z,18.49
2022-08-18T04:52:38.821Z,18.49
2022-08-18T04:54:08.234Z,18.49
2022-08-18T04:56:38.250Z,18.49
2022-08-18T04:59:06.624Z,18.50
2022-08-18T05:01:36.006Z,18.51
2022-08-18T05:04:03.641Z,18.52
2022-08-18T05:06:31.805Z,18.52
2022-08-18T05:09:00.214Z,18.53
2022-08-18T05:11:28.412Z,18.54
2022-08-18T05:13:59.054Z,18.56
2022-08-18T05:16:27.846Z,18.57
2022-08-18T05:18:56.042Z,18.57
2022-08-18T05:21:24.433Z,18.57
2022-08-18T05:23:52.213Z,18.61
2022-08-18T05:26:20.274Z,18.63
2022-08-18T05:28:48.575Z,18.65
2022-08-18T05:31:24.043Z,18.68
2022-08-18T05:33:52.133Z,18.70
2022-08-18T05:36:28.926Z,18.74
2022-08-18T05:39:00.516Z,18.74
2022-08-18T05:41:29.910Z,18.78
2022-08-18T05:43:58.170Z,18.80
2022-08-18T05:46:33.414Z,18.82
2022-08-18T05:49:00.998Z,18.84
2022-08-18T05:51:32.129Z,18.86
2022-08-18T05:54:17.481Z,18.87
2022-08-18T05:56:49.724Z,18.89
2022-08-18T05:59:21.237Z,18.92
2022-08-18T06:01:54.856Z,18.96
2022-08-18T06:04:27.837Z,18.98
2022-08-18T06:06:57.849Z,19.01
2022-08-18T06:09:27.081Z,19.03
2022-08-18T06:11:58.099Z,19.06
2022-08-18T06:14:26.004Z,19.11
2022-08-18T06:16:59.566Z,19.17
2022-08-18T06:19:31.264Z,19.24
2022-08-18T06:22:02.361Z,19.29
2022-08-18T06:24:34.663Z,19.33
2022-08-18T06:27:07.674Z,19.39
2022-08-18T06:29:44.359Z,19.41
2022-08-18T06:32:19.582Z,19.48
2022-08-18T06:34:56.397Z,19.54
2022-08-18T06:37:29.424Z,19.57
2022-08-18T06:39:58.219Z,19.57
2022-08-18T06:42:30.467Z,19.57
2022-08-18T06:45:01.562Z,19.56
2022-08-18T06:47:37.560Z,19.53
2022-08-18T06:50:06.754Z,19.55
2022-08-18T06:52:35.978Z,19.60
2022-08-18T06:55:06.622Z,19.71
2022-08-18T06:57:35.572Z,19.91
2022-08-18T07:00:08.094Z,20.20
2022-08-18T07:02:43.634Z,20.57
2022-08-18T07:05:19.220Z,20.79
2022-08-18T07:07:47.395Z,20.93
2022-08-18T07:10:29.835Z,21.24
2022-08-18T07:13:06.859Z,21.73
2022-08-18T07:15:34.443Z,22.07
2022-08-18T07:18:07.437Z,22.43
2022-08-18T07:20:42.623Z,22.75
2022-08-18T07:23:10.839Z,22.72
2022-08-18T07:25:40.992Z,22.61
2022-08-18T07:28:08.603Z,22.50
2022-08-18T07:30:37.804Z,22.31
2022-08-18T07:33:15.466Z,22.13
2022-08-18T07:35:45.809Z,22.09
2022-08-18T07:41:15.476Z,23.09
2022-08-18T07:43:47.307Z,23.69
2022-08-18T07:46:18.412Z,24.24
2022-08-18T07:48:47.811Z,24.76
2022-08-18T07:51:21.863Z,25.39
2022-08-18T07:53:56.446Z,26.04
2022-08-18T07:56:29.881Z,26.51
2022-08-18T07:58:59.750Z,26.84
2022-08-18T08:01:34.865Z,27.12
2022-08-18T08:04:11.281Z,27.52
2022-08-18T08:07:22.944Z,27.56
2022-08-18T08:09:52.075Z,27.39
2022-08-18T08:12:24.857Z,27.38
2022-08-18T08:15:00.419Z,27.38
2022-08-18T08:17:32.518Z,27.47
2022-08-18T08:20:15.521Z,27.60
2022-08-18T08:22:50.433Z,27.76
2022-08-18T08:25:45.365Z,28.13
2022-08-18T08:28:17.053Z,28.62
2022-08-18T08:30:47.425Z,29.04
2022-08-18T08:33:22.083Z,29.30
2022-08-18T08:35:53.339Z,29.36
2022-08-18T08:38:39.858Z,29.46
2022-08-18T08:41:13.312Z,29.33
2022-08-18T08:43:43.652Z,29.40
2022-08-18T08:46:13.741Z,29.60
2022-08-18T08:48:43.854Z,29.65
2022-08-18T08:51:18.428Z,29.65
2022-08-18T08:53:49.130Z,29.81
2022-08-18T08:56:18.202Z,30.08
2022-08-18T08:58:49.345Z,30.38
2022-08-18T09:01:25.028Z,30.59
2022-08-18T09:03:57.844Z,30.79
2022-08-18T09:06:32.183Z,30.98
2022-08-18T09:09:09.377Z,31.10
2022-08-18T09:11:50.216Z,31.21
2022-08-18T09:14:32.893Z,31.13
2022-08-18T09:17:13.110Z,31.17
2022-08-18T09:19:48.924Z,31.30
2022-08-18T09:22:27.307Z,31.41
2022-08-18T09:24:55.798Z,31.27
2022-08-18T09:27:40.025Z,31.23
2022-08-18T09:30:34.492Z,31.35
2022-08-18T09:33:18.652Z,31.68
2022-08-18T09:35:58.021Z,31.90
2022-08-18T09:38:48.694Z,31.80
2022-08-18T09:41:34.427Z,31.68
2022-08-18T09:44:21.342Z,31.64
2022-08-18T09:46:56.211Z,31.22
2022-08-18T09:49:42.371Z,31.27
2022-08-18T09:52:37.495Z,31.57
2022-08-18T09:55:27.765Z,31.75
2022-08-18T09:58:11.395Z,31.82
2022-08-18T10:00:38.975Z,31.81
2022-08-18T10:06:19.109Z,31.68
2022-08-18T10:08:56.433Z,31.70
2022-08-18T10:11:30.399Z,31.88
2022-08-18T10:14:08.333Z,31.94
2022-08-18T10:17:13.230Z,31.75
2022-08-18T10:19:39.644Z,31.90
2022-08-18T10:22:09.366Z,32.15
2022-08-18T10:24:44.315Z,32.42
2022-08-18T10:27:34.489Z,32.69
2022-08-18T10:30:05.374Z,32.61
2022-08-18T10:32:52.175Z,32.33
2022-08-18T10:35:39.830Z,32.50
2022-08-18T10:38:14.830Z,32.46
2022-08-18T10:40:44.483Z,32.32
2022-08-18T10:43:45.444Z,32.11
2022-08-18T10:46:25.268Z,31.91
2022-08-18T10:49:04.317Z,31.73
2022-08-18T10:51:59.451Z,31.73
2022-08-18T10:54:35.143Z,31.92
2022-08-18T10:57:24.047Z,32.00
2022-08-18T10:59:57.603Z,31.91
2022-08-18T11:02:40.358Z,31.97
2022-08-18T11:05:10.946Z,32.07
2022-08-18T11:07:42.980Z,31.97
2022-08-18T11:10:58.044Z,31.84
2022-08-18T11:13:11.048Z,31.92
2022-08-18T11:15:46.374Z,32.11
2022-08-18T11:18:28.973Z,32.30
2022-08-18T11:21:13.105Z,32.24
2022-08-18T11:23:41.285Z,32.28
2022-08-18T11:26:14.920Z,32.29
2022-08-18T11:28:46.046Z,32.30
2022-08-18T11:31:15.921Z,32.16
2022-08-18T11:33:47.947Z,32.00
2022-08-18T11:36:19.163Z,31.79
2022-08-18T11:38:55.528Z,31.67
2022-08-18T11:41:33.879Z,31.43
2022-08-18T11:44:18.860Z,31.16
2022-08-18T11:46:52.094Z,31.14
2022-08-18T11:49:24.486Z,31.07
2022-08-18T11:51:55.554Z,31.13
2022-08-18T11:54:24.806Z,31.17
2022-08-18T11:56:53.134Z,31.33
2022-08-18T12:02:25.408Z,31.18
2022-08-18T12:04:54.273Z,31.16
2022-08-18T12:07:28.271Z,31.13
2022-08-18T12:10:17.074Z,31.04
2022-08-18T12:12:47.991Z,30.93
2022-08-18T12:15:29.595Z,30.85
2022-08-18T12:18:25.937Z,30.82
2022-08-18T12:20:57.078Z,30.86
2022-08-18T12:23:25.191Z,30.76
2022-08-18T12:25:52.701Z,30.72
2022-08-18T12:28:22.359Z,30.85
2022-08-18T12:30:56.342Z,31.00
2022-08-18T12:33:34.472Z,30.87
2022-08-18T12:36:15.788Z,30.75
2022-08-18T12:38:52.035Z,30.83
2022-08-18T12:41:24.170Z,30.93
2022-08-18T12:43:59.116Z,30.95
2022-08-18T12:46:27.875Z,30.95
2022-08-18T12:48:57.096Z,30.93
2022-08-18T12:51:30.641Z,30.80
2022-08-18T12:53:59.978Z,30.74
2022-08-18T12:56:30.435Z,30.56
2022-08-18T12:58:58.813Z,30.26
2022-08-18T13:01:28.452Z,30.03
2022-08-18T13:04:10.876Z,29.88
2022-08-18T13:06:54.168Z,29.69
2022-08-18T13:09:42.931Z,29.58
2022-08-18T13:12:17.237Z,29.51
2022-08-18T13:14:45.335Z,29.47
2022-08-18T13:17:32.048Z,29.53
2022-08-18T13:20:02.059Z,29.61
2022-08-18T13:22:32.272Z,29.66
2022-08-18T13:25:00.574Z,29.64
2022-08-18T13:27:33.501Z,29.59
2022-08-18T13:30:16.838Z,29.61
2022-08-18T13:32:58.969Z,29.63
2022-08-18T13:35:38.163Z,29.62
2022-08-18T13:38:14.281Z,29.71
2022-08-18T13:40:48.318Z,29.64
2022-08-18T13:43:17.471Z,29.57
2022-08-18T13:45:48.044Z,29.57
2022-08-18T13:48:20.743Z,29.59
2022-08-18T13:50:52.727Z,29.63
2022-08-18T13:53:21.900Z,29.61
2022-08-18T13:55:49.965Z,29.52
2022-08-18T13:58:20.728Z,29.37
2022-08-18T14:00:51.606Z,29.28
2022-08-18T14:03:42.478Z,29.17
2022-08-18T14:06:09.591Z,29.13
2022-08-18T14:08:40.930Z,29.11
2022-08-18T14:11:09.586Z,29.17
2022-08-18T14:13:38.075Z,29.22
2022-08-18T14:16:06.259Z,29.11
2022-08-18T14:18:39.073Z,28.74
2022-08-18T14:21:24.553Z,28.43
2022-08-18T14:24:14.189Z,28.24
2022-08-18T14:26:51.366Z,28.03
2022-08-18T14:29:46.891Z,28.01
2022-08-18T14:32:07.258Z,28.00
2022-08-18T14:34:35.014Z,27.94
2022-08-18T14:37:03.696Z,27.86
2022-08-18T14:39:32.651Z,27.86
2022-08-18T14:42:03.001Z,27.79
2022-08-18T14:44:32.537Z,27.76
2022-08-18T14:47:00.660Z,27.64
2022-08-18T14:49:31.311Z,27.49
2022-08-18T14:51:59.261Z,27.40
2022-08-18T14:54:28.529Z,27.36
2022-08-18T14:56:59.831Z,27.29
2022-08-18T14:59:28.456Z,27.13
2022-08-18T15:01:56.794Z,27.02
2022-08-18T15:04:24.698Z,26.95
2022-08-18T15:06:56.161Z,26.86
2022-08-18T15:09:27.312Z,26.87
2022-08-18T15:11:56.176Z,26.95
2022-08-18T15:14:26.758Z,26.93
2022-08-18T15:17:00.928Z,26.90
2022-08-18T15:19:59.103Z,26.90
2022-08-18T15:22:33.473Z,26.92
2022-08-18T15:25:18.542Z,26.91
2022-08-18T15:27:52.392Z,26.90
2022-08-18T15:30:23.104Z,26.92
2022-08-18T15:32:51.271Z,26.93
2022-08-18T15:35:19.650Z,26.99
2022-08-18T15:37:48.647Z,27.02
2022-08-18T15:40:21.607Z,27.01
2022-08-18T15:43:01.457Z,27.03
2022-08-18T15:45:35.308Z,27.04
2022-08-18T15:48:03.651Z,27.04
2022-08-18T15:50:31.847Z,27.05
2022-08-18T15:53:00.722Z,26.98
2022-08-18T15:55:35.745Z,26.93
2022-08-18T15:58:03.602Z,26.94
2022-08-18T16:00:42.195Z,26.95
2022-08-18T16:03:12.105Z,26.94
2022-08-18T16:05:41.735Z,26.92
2022-08-18T16:08:11.790Z,26.87
2022-08-18T16:10:40.454Z,26.83
2022-08-18T16:13:08.601Z,26.79
2022-08-18T16:15:37.999Z,26.80
2022-08-18T16:18:09.498Z,26.83
2022-08-18T16:20:37.498Z,26.77
2022-08-18T16:23:05.395Z,26.74
2022-08-18T16:25:33.316Z,26.73
2022-08-18T16:28:01.453Z,26.72
2022-08-18T16:30:29.424Z,26.70
2022-08-18T16:33:02.689Z,26.64
2022-08-18T16:35:32.192Z,26.54
2022-08-18T16:38:03.259Z,26.45
2022-08-18T16:40:31.562Z,26.35
2022-08-18T16:43:00.589Z,26.20
2022-08-18T16:45:28.387Z,26.07
2022-08-18T16:47:56.454Z,25.99
2022-08-18T16:50:25.377Z,25.92
2022-08-18T16:52:54.429Z,25.86
2022-08-18T16:55:22.037Z,25.78
2022-08-18T16:58:07.295Z,25.67
2022-08-18T17:00:55.006Z,25.61
2022-08-18T17:03:40.933Z,25.49
2022-08-18T17:06:09.517Z,25.37
2022-08-18T17:08:39.039Z,25.29
2022-08-18T17:11:08.551Z,25.19
2022-08-18T17:13:36.711Z,25.06
2022-08-18T17:16:04.641Z,25.00
2022-08-18T17:18:32.240Z,24.99
2022-08-18T17:21:02.458Z,24.93
2022-08-18T17:23:30.050Z,24.88
2022-08-18T17:25:59.795Z,24.83
2022-08-18T17:28:30.758Z,24.76
2022-08-18T17:31:02.667Z,24.66
2022-08-18T17:33:33.160Z,24.55
2022-08-18T17:36:03.997Z,24.45
2022-08-18T17:38:36.403Z,24.32
2022-08-18T17:41:07.291Z,24.19
2022-08-18T17:43:35.958Z,24.10
2022-08-18T17:46:06.153Z,24.00
2022-08-18T17:48:36.056Z,23.92
2022-08-18T17:51:25.022Z,23.81
2022-08-18T17:53:52.563Z,23.69
2022-08-18T17:56:24.282Z,23.59
2022-08-18T17:59:45.876Z,23.52
2022-08-18T18:02:09.472Z,23.45
2022-08-18T18:04:56.193Z,23.33
2022-08-18T18:07:25.157Z,23.27
2022-08-18T18:09:56.968Z,23.17
2022-08-18T18:12:28.417Z,23.05
2022-08-18T18:14:56.503Z,22.95
2022-08-18T18:17:26.368Z,22.87
2022-08-18T18:19:56.472Z,22.80
2022-08-18T18:22:25.992Z,22.74
2022-08-18T18:24:54.903Z,22.66
2022-08-18T18:27:32.001Z,22.59
2022-08-18T18:30:01.997Z,22.51
2022-08-18T18:32:31.201Z,22.41
2022-08-18T18:35:03.693Z,22.33
2022-08-18T18:37:33.071Z,22.27
2022-08-18T18:40:02.326Z,22.21
2022-08-18T18:42:32.794Z,22.14
2022-08-18T18:45:01.398Z,22.07
2022-08-18T18:47:34.851Z,22.01
2022-08-18T18:50:07.162Z,21.95
2022-08-18T18:52:42.194Z,21.87
2022-08-18T18:55:14.739Z,21.81
2022-08-18T18:57:49.199Z,21.75
2022-08-18T19:00:20.881Z,21.66
2022-08-18T19:03:03.691Z,21.59
2022-08-18T19:05:35.244Z,21.51
2022-08-18T19:08:07.972Z,21.46
2022-08-18T19:10:37.517Z,21.41
2022-08-18T19:13:10.521Z,21.33
2022-08-18T19:15:40.120Z,21.25
2022-08-18T19:18:22.981Z,21.19
2022-08-18T19:22:01.948Z,21.13
2022-08-18T19:23:44.809Z,21.04
2022-08-18T19:26:13.565Z,20.97
2022-08-18T19:29:12.133Z,20.91
2022-08-18T19:31:36.183Z,20.83
2022-08-18T19:34:08.530Z,20.79
2022-08-18T19:36:40.504Z,20.73
2022-08-18T19:39:13.994Z,20.65
2022-08-18T19:41:45.778Z,20.59
2022-08-18T19:44:22.020Z,20.54
2022-08-18T19:46:51.262Z,20.47
2022-08-18T19:49:23.466Z,20.41
2022-08-18T19:51:53.931Z,20.33
2022-08-18T19:54:38.843Z,20.27
2022-08-18T19:57:13.697Z,20.22
2022-08-18T19:59:57.244Z,20.17
2022-08-18T20:02:33.929Z,20.11
2022-08-18T20:05:10.108Z,20.05
2022-08-18T20:07:54.870Z,19.99
2022-08-18T20:10:32.475Z,19.94
2022-08-18T20:13:14.827Z,19.89
2022-08-18T20:15:59.073Z,19.84
2022-08-18T20:18:35.830Z,19.78
2022-08-18T20:21:22.064Z,19.71
2022-08-18T20:23:58.700Z,19.65
2022-08-18T20:26:41.927Z,19.59
2022-08-18T20:29:11.445Z,19.55
2022-08-18T20:31:46.168Z,19.52
2022-08-18T20:34:15.212Z,19.47
2022-08-18T20:36:43.758Z,19.43
2022-08-18T20:39:32.183Z,19.38
2022-08-18T20:41:59.826Z,19.34
2022-08-18T20:44:38.542Z,19.27
2022-08-18T20:47:21.059Z,19.23
2022-08-18T20:49:55.708Z,19.18
2022-08-18T20:52:29.765Z,19.14
2022-08-18T20:55:11.356Z,19.11
2022-08-18T20:57:39.927Z,19.07
2022-08-18T21:00:13.308Z,19.02
2022-08-18T21:02:41.688Z,18.99
2022-08-18T21:05:27.586Z,18.96
2022-08-18T21:08:03.371Z,18.95
2022-08-18T21:10:31.462Z,18.95
2022-08-18T21:12:59.933Z,18.92
2022-08-18T21:15:29.061Z,18.92
2022-08-18T21:18:01.420Z,18.92
2022-08-18T21:20:31.404Z,18.89
2022-08-18T21:23:04.245Z,18.89
2022-08-18T21:25:33.507Z,18.86
2022-08-18T21:28:02.307Z,18.86
2022-08-18T21:30:30.476Z,18.85
2022-08-18T21:32:58.063Z,18.85
2022-08-18T21:35:28.655Z,18.84
2022-08-18T21:37:58.532Z,18.85
2022-08-18T21:40:30.573Z,18.84
2022-08-18T21:42:59.437Z,18.84
2022-08-18T21:45:29.599Z,18.81
2022-08-18T21:47:58.842Z,18.81
2022-08-18T21:50:27.680Z,18.81
2022-08-18T21:52:57.159Z,18.79
2022-08-18T21:55:30.172Z,18.79
2022-08-18T21:58:03.105Z,18.78
2022-08-18T22:00:32.977Z,18.76
2022-08-18T22:03:12.547Z,18.74
2022-08-18T22:05:55.082Z,18.73
2022-08-18T22:08:28.174Z,18.72
2022-08-18T22:11:59.657Z,18.71
2022-08-18T22:14:14.019Z,18.70
2022-08-18T22:16:43.421Z,18.68
2022-08-18T22:19:13.032Z,18.67
2022-08-18T22:21:43.332Z,18.64
2022-08-18T22:24:19.479Z,18.63
2022-08-18T22:26:50.393Z,18.62
2022-08-18T22:29:32.482Z,18.60
2022-08-18T22:32:01.768Z,18.58
2022-08-18T22:34:31.893Z,18.56
2022-08-18T22:37:01.028Z,18.54
2022-08-18T22:39:30.545Z,18.52
2022-08-18T22:42:00.076Z,18.51
2022-08-18T22:44:28.320Z,18.50
2022-08-18T22:46:55.906Z,18.46
2022-08-18T22:49:24.186Z,18.44
2022-08-18T22:51:53.230Z,18.43
2022-08-18T22:54:21.508Z,18.40
2022-08-18T22:56:53.916Z,18.39
2022-08-18T22:59:26.916Z,18.36
2022-08-18T23:01:55.468Z,18.35
2022-08-18T23:04:25.424Z,18.33
2022-08-18T23:06:53.722Z,18.31
2022-08-18T23:09:22.483Z,18.30
2022-08-18T23:11:50.371Z,18.27
2022-08-18T23:14:17.933Z,18.24
2022-08-18T23:16:47.078Z,18.24
2022-08-18T23:19:15.237Z,18.20
2022-08-18T23:21:42.821Z,18.19
2022-08-18T23:24:11.491Z,18.16
2022-08-18T23:26:40.336Z,18.15
2022-08-18T23:29:09.332Z,18.11
2022-08-18T23:31:36.894Z,18.08
2022-08-18T23:34:06.186Z,18.07
2022-08-18T23:36:34.376Z,18.05
2022-08-18T23:39:02.066Z,18.04
2022-08-18T23:41:29.637Z,18.02
2022-08-18T23:43:59.740Z,18.00
2022-08-18T23:46:28.845Z,17.98
2022-08-18T23:48:57.481Z,17.96
2022-08-18T23:51:27.832Z,17.93
2022-08-18T23:53:56.695Z,17.90
2022-08-18T23:56:24.479Z,17.90
2022-08-18T23:58:52.060Z,17.88
